Airfield :
LOGIN :

Register | Disclaimer

   EN    FR    IT 

 










Legend :    VFR   Marginal VFR   IFR   Intensive IFR   Very Intensive IFR
Visi :
Ceiling :
>= 8 km
>= 3000ft
5 to 8 km
1000 to 3000 ft
1500m to 5 km
500 to 1000 ft
800 to 1500m
200 to 500 ft
< 800m
< 200 ft
Symbols :   Thunderstorms  Fog  Heavy snow  Heavy precipitations  Wind > 20 kt
SIGMETs :     Misc.  Thunderstorms  Icing  Turbulence  Mountain Waves  Volcanic Ashes






- Airport Elevation : 741 ft
- IATA code : PED


LKPD - Pardubice AB

CURRENT METAR :
  • 021330Z 28005KT CAVOK 12/M06 Q1010 NOSIG RMK BLU BLU

EXPIRED METARs :
  • 021300Z 28003KT 220V030 CAVOK 12/M06 Q1011 NOSIG RMK BLU BLU
  • 021230Z 28006KT 210V340 CAVOK 11/M06 Q1011 NOSIG RMK BLU BLU
  • 021200Z 33005KT 260V050 CAVOK 11/M06 Q1012 NOSIG RMK BLU BLU
  • 021130Z 28007KT 210V320 CAVOK 10/M07 Q1012 NOSIG RMK BLU BLU
  • 021100Z 25007KT 210V300 CAVOK 10/M06 Q1012 NOSIG RMK BLU BLU

TAF TAF LKPD
Valid from the 02 at 12:00 until the 03 at 12:00 UTC


021100Z 0212/0312 27008KT CAVOK
TEMPO 0216/0222 VRB02KT
BECMG 0308/0310 BKN030
TEMPO 0310/0312 27014G24KT 7000 SHRA BKN020



MET'MAP, your aeronautical weather chart ! - Copyright ORBIFLY December 2007 - Disclaimer

ORBIFLY MET'MAP TEAM :

Programming & Development : Alexandra Zaïnal
Concept & original design : Baudouin d'Aumeries
Assistance for programming : Marc-Olivier Méhu
Technical & hardware support : Manuel Goepfert

Contact : metmap@orbifly.com




SOURCES & CREDITS :

   NOAA